Time,TemperatureF,DewpointF,PressureIn,WindDirection,WindDirectionDegrees,WindSpeedMPH,WindSpeedGustMPH,Humidity,HourlyPrecipIn,Conditions,Clouds,dailyrainin,SoftwareType,DateUTC
2013-05-22 00:02:00,75.0,69.0,29.79,North,0,0.0,0.0,81,0.00,,,0.00,,2013-05-22 05:02:00,
2013-05-22 00:11:00,75.0,69.0,29.79,North,0,0.0,0.0,81,0.00,,,0.00,,2013-05-22 05:11:00,
2013-05-22 00:21:00,75.0,69.0,29.79,North,0,0.0,0.0,81,0.00,,,0.00,,2013-05-22 05:21:00,
2013-05-22 00:32:00,75.0,69.0,29.79,North,0,0.0,0.0,81,0.00,,,0.00,,2013-05-22 05:32:00,
2013-05-22 00:42:00,75.0,69.0,29.78,North,0,0.0,0.0,81,0.00,,,0.00,,2013-05-22 05:42:00,
2013-05-22 00:51:00,75.0,69.0,29.78,North,0,0.0,0.0,81,0.00,,,0.00,,2013-05-22 05:51:00,
2013-05-22 01:01:00,75.0,69.0,29.78,North,0,0.0,0.0,81,0.00,,,0.00,,2013-05-22 06:01:00,
2013-05-22 01:11:00,75.0,69.0,29.76,North,0,0.0,0.0,81,0.00,,,0.00,,2013-05-22 06:11:00,
2013-05-22 01:21:00,75.0,69.0,29.76,North,0,0.0,0.0,81,0.00,,,0.00,,2013-05-22 06:21:00,
2013-05-22 01:31:00,75.0,69.0,29.76,North,0,0.0,0.0,81,0.00,,,0.00,,2013-05-22 06:31:00,
2013-05-22 01:42:00,75.0,69.0,29.73,North,0,0.0,0.0,81,0.00,,,0.00,,2013-05-22 06:42:00,
2013-05-22 01:52:00,75.0,69.0,29.73,North,0,0.0,0.0,81,0.00,,,0.00,,2013-05-22 06:52:00,
2013-05-22 02:01:00,75.0,69.0,29.73,North,0,0.0,0.0,81,0.00,,,0.00,,2013-05-22 07:01:00,
2013-05-22 02:11:00,75.0,69.0,29.73,North,0,0.0,0.0,81,0.00,,,0.00,,2013-05-22 07:11:00,
2013-05-22 02:21:00,75.0,69.0,29.74,North,0,0.0,0.0,81,0.00,,,0.00,,2013-05-22 07:21:00,
2013-05-22 02:31:00,75.0,69.0,29.74,North,0,0.0,0.0,81,0.00,,,0.00,,2013-05-22 07:31:00,
2013-05-22 02:41:00,75.0,69.0,29.74,North,0,0.0,0.0,81,0.00,,,0.00,,2013-05-22 07:41:00,
2013-05-22 02:52:00,75.0,69.0,29.74,North,0,0.0,0.0,81,0.00,,,0.00,,2013-05-22 07:52:00,
2013-05-22 03:02:00,75.0,69.0,29.74,North,0,0.0,0.0,81,0.00,,,0.00,,2013-05-22 08:02:00,
2013-05-22 03:11:00,75.0,69.0,29.74,North,0,0.0,0.0,81,0.00,,,0.00,,2013-05-22 08:11:00,
2013-05-22 03:22:00,75.0,69.0,29.74,North,0,0.0,0.0,81,0.00,,,0.00,,2013-05-22 08:22:00,
2013-05-22 03:31:00,75.0,69.0,29.68,North,0,0.0,0.0,81,0.00,,,0.00,,2013-05-22 08:31:00,
2013-05-22 03:42:00,75.0,69.0,29.68,North,0,0.0,0.0,81,0.00,,,0.00,,2013-05-22 08:42:00,
2013-05-22 03:52:00,75.0,69.0,29.68,North,0,0.0,0.0,81,0.00,,,0.00,,2013-05-22 08:52:00,
2013-05-22 04:01:00,75.0,69.0,29.70,North,0,0.0,0.0,81,0.00,,,0.00,,2013-05-22 09:01:00,
2013-05-22 04:11:00,75.0,69.0,29.70,North,0,0.0,0.0,81,0.00,,,0.00,,2013-05-22 09:11:00,
2013-05-22 04:21:00,75.0,69.0,29.72,North,0,0.0,0.0,81,0.00,,,0.00,,2013-05-22 09:21:00,
2013-05-22 04:33:00,75.0,69.0,29.72,North,0,0.0,0.0,81,0.00,,,0.00,,2013-05-22 09:33:00,
2013-05-22 04:42:00,75.0,69.0,29.72,North,0,0.0,0.0,81,0.00,,,0.00,,2013-05-22 09:42:00,
2013-05-22 04:53:00,75.0,69.0,29.73,North,0,0.0,0.0,81,0.00,,,0.00,,2013-05-22 09:53:00,
2013-05-22 05:03:00,75.0,69.0,29.73,North,0,0.0,0.0,81,0.00,,,0.00,,2013-05-22 10:03:00,
2013-05-22 05:12:00,75.0,69.0,29.73,North,0,0.0,0.0,81,0.00,,,0.00,,2013-05-22 10:12:00,
2013-05-22 05:22:00,75.0,69.0,29.73,North,0,0.0,0.0,81,0.00,,,0.00,,2013-05-22 10:22:00,
2013-05-22 05:33:00,75.0,69.0,29.73,North,0,0.0,0.0,81,0.00,,,0.00,,2013-05-22 10:33:00,
2013-05-22 05:42:00,75.0,69.0,29.73,North,0,0.0,0.0,81,0.00,,,0.00,,2013-05-22 10:42:00,
2013-05-22 05:52:00,75.0,69.0,29.73,North,0,0.0,0.0,81,0.00,,,0.00,,2013-05-22 10:52:00,
2013-05-22 06:02:00,75.0,69.0,29.73,North,0,0.0,0.0,81,0.00,,,0.00,,2013-05-22 11:02:00,
2013-05-22 06:11:00,75.0,69.0,29.73,North,0,0.0,0.0,81,0.00,,,0.00,,2013-05-22 11:11:00,
2013-05-22 06:21:00,75.0,69.0,29.73,North,0,0.0,0.0,81,0.00,,,0.00,,2013-05-22 11:21:00,
2013-05-22 06:32:00,75.0,69.0,29.75,North,0,0.0,0.0,81,0.00,,,0.00,,2013-05-22 11:32:00,
2013-05-22 06:41:00,75.0,69.0,29.75,North,0,0.0,0.0,81,0.00,,,0.00,,2013-05-22 11:41:00,
2013-05-22 06:52:00,75.0,69.0,29.75,North,0,0.0,0.0,81,0.00,,,0.00,,2013-05-22 11:52:00,
2013-05-22 07:02:00,75.0,69.0,29.75,North,0,0.0,0.0,81,0.00,,,0.00,,2013-05-22 12:02:00,
2013-05-22 07:12:00,75.0,69.0,29.75,North,0,0.0,0.0,81,0.00,,,0.00,,2013-05-22 12:12:00,
2013-05-22 07:22:00,75.0,69.0,29.75,North,0,0.0,0.0,81,0.00,,,0.00,,2013-05-22 12:22:00,
2013-05-22 07:32:00,75.0,69.0,29.76,North,0,0.0,0.0,81,0.00,,,0.00,,2013-05-22 12:32:00,
2013-05-22 07:42:00,75.0,69.0,29.76,North,0,0.0,0.0,81,0.00,,,0.00,,2013-05-22 12:42:00,
2013-05-22 07:52:00,75.0,69.0,29.76,North,0,0.0,0.0,81,0.00,,,0.00,,2013-05-22 12:52:00,
2013-05-22 08:01:00,75.0,69.0,29.76,North,0,0.0,0.0,81,0.00,,,0.00,,2013-05-22 13:01:00,
2013-05-22 08:11:00,75.0,69.0,29.76,North,0,0.0,0.0,81,0.00,,,0.00,,2013-05-22 13:11:00,
2013-05-22 08:22:00,75.0,69.0,29.76,North,0,0.0,0.0,81,0.00,,,0.00,,2013-05-22 13:22:00,
2013-05-22 08:32:00,75.0,69.0,29.76,North,0,0.0,0.0,81,0.00,,,0.00,,2013-05-22 13:32:00,
2013-05-22 08:41:00,75.0,69.0,29.76,North,0,0.0,0.0,81,0.00,,,0.00,,2013-05-22 13:41:00,
2013-05-22 08:52:00,75.0,69.0,29.76,North,0,0.0,0.0,81,0.00,,,0.00,,2013-05-22 13:52:00,
2013-05-22 09:02:00,75.0,69.0,29.76,North,0,0.0,0.0,81,0.00,,,0.00,,2013-05-22 14:02:00,
2013-05-22 09:11:00,75.0,69.0,29.77,North,0,0.0,0.0,81,0.00,,,0.00,,2013-05-22 14:11:00,
2013-05-22 09:21:00,75.0,69.0,29.77,North,0,0.0,0.0,81,0.00,,,0.00,,2013-05-22 14:21:00,
2013-05-22 09:32:00,67.0,65.0,29.77,North,0,0.0,0.0,94,0.00,,,0.00,,2013-05-22 14:32:00,
2013-05-22 09:41:00,67.0,65.0,29.77,North,0,0.0,0.0,94,0.00,,,0.00,,2013-05-22 14:41:00,
2013-05-22 09:52:00,67.0,65.0,29.77,North,0,0.0,0.0,94,0.00,,,0.00,,2013-05-22 14:52:00,
2013-05-22 10:01:00,68.0,64.0,29.77,SW,232,3.0,9.0,86,0.00,,,0.00,,2013-05-22 15:01:00,
2013-05-22 10:11:00,68.0,64.0,29.77,SW,232,3.0,9.0,86,0.00,,,0.00,,2013-05-22 15:11:00,
2013-05-22 10:21:00,68.0,64.0,29.77,WSW,240,2.0,11.0,86,0.00,,,0.00,,2013-05-22 15:21:00,
2013-05-22 10:32:00,69.0,64.0,29.77,SW,233,3.0,14.0,84,0.00,,,0.00,,2013-05-22 15:32:00,
2013-05-22 10:42:00,69.0,64.0,29.77,SW,233,3.0,14.0,84,0.00,,,0.00,,2013-05-22 15:42:00,
2013-05-22 10:53:00,69.0,64.0,29.77,WSW,241,1.0,7.0,84,0.00,,,0.00,,2013-05-22 15:53:00,
2013-05-22 11:03:00,70.0,63.0,29.77,WSW,258,3.0,12.0,79,0.00,,,0.00,,2013-05-22 16:03:00,
2013-05-22 11:12:00,70.0,63.0,29.77,WSW,258,3.0,12.0,79,0.00,,,0.00,,2013-05-22 16:12:00,
2013-05-22 11:23:00,71.0,63.0,29.77,WSW,254,5.0,16.0,76,0.00,,,0.00,,2013-05-22 16:23:00,
2013-05-22 11:32:00,72.0,63.0,29.77,WSW,250,5.0,16.0,74,0.00,,,0.00,,2013-05-22 16:32:00,
2013-05-22 11:42:00,72.0,63.0,29.77,WSW,250,5.0,16.0,74,0.00,,,0.00,,2013-05-22 16:42:00,
2013-05-22 11:52:00,72.0,63.0,29.77,WSW,253,5.0,13.0,74,0.00,,,0.00,,2013-05-22 16:52:00,
2013-05-22 12:02:00,72.0,63.0,29.77,WSW,258,4.0,12.0,73,0.00,,,0.00,,2013-05-22 17:02:00,
2013-05-22 12:11:00,72.0,64.0,29.77,WSW,256,2.0,11.0,75,0.00,,,0.00,,2013-05-22 17:11:00,
2013-05-22 12:22:00,72.0,64.0,29.77,WSW,256,2.0,11.0,75,0.00,,,0.00,,2013-05-22 17:22:00,
2013-05-22 12:32:00,72.0,64.0,29.77,WSW,241,0.0,5.0,75,0.00,,,0.00,,2013-05-22 17:32:00,
2013-05-22 12:42:00,72.0,64.0,29.77,WSW,241,0.0,5.0,75,0.00,,,0.00,,2013-05-22 17:42:00,
2013-05-22 12:53:00,71.0,63.0,29.77,WSW,241,0.0,5.0,75,0.00,,,0.00,,2013-05-22 17:53:00,
2013-05-22 13:02:00,71.0,63.0,29.77,WSW,241,0.0,5.0,75,0.00,,,0.00,,2013-05-22 18:02:00,
2013-05-22 13:14:00,71.0,63.0,29.77,WSW,241,0.0,5.0,75,0.00,,,0.00,,2013-05-22 18:14:00,
2013-05-22 13:22:00,72.0,64.0,29.77,West,281,2.0,8.0,76,0.00,,,0.00,,2013-05-22 18:22:00,
2013-05-22 13:33:00,71.0,63.0,29.77,West,272,1.0,11.0,77,0.00,,,0.00,,2013-05-22 18:33:00,
2013-05-22 13:42:00,71.0,63.0,29.77,West,272,1.0,11.0,77,0.00,,,0.00,,2013-05-22 18:42:00,
2013-05-22 13:52:00,70.0,63.0,29.77,West,271,1.0,10.0,79,0.00,,,0.00,,2013-05-22 18:52:00,
2013-05-22 14:02:00,71.0,63.0,29.77,West,269,2.0,10.0,77,0.00,,,0.00,,2013-05-22 19:02:00,
2013-05-22 14:11:00,72.0,63.0,29.77,West,267,2.0,8.0,74,0.00,,,0.00,,2013-05-22 19:11:00,
2013-05-22 14:21:00,72.0,63.0,29.77,West,267,2.0,8.0,74,0.00,,,0.00,,2013-05-22 19:21:00,
2013-05-22 14:32:00,73.0,63.0,29.76,WSW,258,5.0,12.0,71,0.00,,,0.00,,2013-05-22 19:32:00,
2013-05-22 14:42:00,73.0,64.0,29.76,West,265,4.0,18.0,73,0.00,,,0.00,,2013-05-22 19:42:00,
2013-05-22 14:52:00,73.0,64.0,29.76,West,265,4.0,18.0,73,0.00,,,0.00,,2013-05-22 19:52:00,
2013-05-22 15:02:00,74.0,64.0,29.75,West,275,3.0,14.0,72,0.00,,,0.00,,2013-05-22 20:02:00,
2013-05-22 15:11:00,74.0,64.0,29.75,West,260,2.0,13.0,70,0.00,,,0.00,,2013-05-22 20:11:00,
2013-05-22 15:21:00,74.0,64.0,29.75,West,260,2.0,13.0,70,0.00,,,0.00,,2013-05-22 20:21:00,
2013-05-22 15:32:00,74.0,64.0,29.75,WSW,247,3.0,11.0,70,0.00,,,0.00,,2013-05-22 20:32:00,
2013-05-22 15:42:00,75.0,63.0,29.75,West,259,3.0,10.0,66,0.00,,,0.00,,2013-05-22 20:42:00,
2013-05-22 15:51:00,75.0,63.0,29.75,West,259,3.0,10.0,66,0.00,,,0.00,,2013-05-22 20:51:00,
2013-05-22 16:01:00,75.0,62.0,29.74,West,260,5.0,14.0,64,0.00,,,0.00,,2013-05-22 21:01:00,
2013-05-22 16:11:00,76.0,63.0,29.74,West,269,6.0,17.0,65,0.00,,,0.00,,2013-05-22 21:11:00,
2013-05-22 16:21:00,76.0,63.0,29.74,West,269,6.0,17.0,65,0.00,,,0.00,,2013-05-22 21:21:00,
2013-05-22 16:32:00,75.0,62.0,29.74,West,272,5.0,14.0,65,0.00,,,0.00,,2013-05-22 21:32:00,
2013-05-22 16:42:00,75.0,62.0,29.74,West,272,5.0,14.0,65,0.00,,,0.00,,2013-05-22 21:42:00,
2013-05-22 16:53:00,76.0,63.0,29.73,West,259,4.0,12.0,64,0.00,,,0.00,,2013-05-22 21:53:00,
2013-05-22 17:03:00,76.0,62.0,29.73,West,263,3.0,9.0,63,0.00,,,0.00,,2013-05-22 22:03:00,
2013-05-22 17:12:00,76.0,62.0,29.73,West,268,4.0,12.0,61,0.00,,,0.00,,2013-05-22 22:12:00,
2013-05-22 17:22:00,76.0,62.0,29.73,West,268,4.0,12.0,61,0.00,,,0.00,,2013-05-22 22:22:00,
2013-05-22 17:33:00,75.0,60.0,29.73,West,261,5.0,13.0,59,0.00,,,0.00,,2013-05-22 22:33:00,
2013-05-22 17:42:00,76.0,61.0,29.73,West,265,3.0,12.0,59,0.00,,,0.00,,2013-05-22 22:42:00,
2013-05-22 17:52:00,76.0,61.0,29.73,West,265,3.0,12.0,59,0.00,,,0.00,,2013-05-22 22:52:00,
2013-05-22 18:02:00,76.0,60.0,29.73,West,261,3.0,10.0,58,0.00,,,0.00,,2013-05-22 23:02:00,
2013-05-22 18:12:00,76.0,60.0,29.73,West,261,3.0,10.0,58,0.00,,,0.00,,2013-05-22 23:12:00,
2013-05-22 18:21:00,76.0,59.0,29.73,West,273,1.0,6.0,55,0.00,,,0.00,,2013-05-22 23:21:00,
2013-05-22 18:32:00,76.0,59.0,29.73,West,271,2.0,11.0,55,0.00,,,0.00,,2013-05-22 23:32:00,
2013-05-22 18:42:00,76.0,60.0,29.73,West,266,1.0,7.0,58,0.00,,,0.00,,2013-05-22 23:42:00,
2013-05-22 18:52:00,76.0,60.0,29.73,West,266,1.0,7.0,58,0.00,,,0.00,,2013-05-22 23:52:00,
2013-05-22 19:01:00,75.0,60.0,29.73,West,268,2.0,8.0,59,0.00,,,0.00,,2013-05-23 00:01:00,
2013-05-22 19:11:00,75.0,60.0,29.73,West,268,2.0,8.0,59,0.00,,,0.00,,2013-05-23 00:11:00,
2013-05-22 19:22:00,75.0,61.0,29.73,West,273,2.0,12.0,62,0.00,,,0.00,,2013-05-23 00:22:00,
2013-05-22 19:31:00,74.0,61.0,29.74,West,266,0.0,6.0,63,0.00,,,0.00,,2013-05-23 00:31:00,
2013-05-22 19:42:00,74.0,61.0,29.74,West,266,0.0,6.0,63,0.00,,,0.00,,2013-05-23 00:42:00,
2013-05-22 19:51:00,73.0,61.0,29.74,West,265,0.0,3.0,65,0.00,,,0.00,,2013-05-23 00:51:00,
2013-05-22 20:01:00,72.0,60.0,29.75,West,261,0.0,3.0,67,0.00,,,0.00,,2013-05-23 01:01:00,
2013-05-22 20:11:00,71.0,60.0,29.76,North,0,0.0,0.0,69,0.00,,,0.00,,2013-05-23 01:11:00,
2013-05-22 20:21:00,71.0,60.0,29.76,North,0,0.0,0.0,69,0.00,,,0.00,,2013-05-23 01:21:00,
2013-05-22 20:32:00,70.0,60.0,29.76,North,0,0.0,0.0,71,0.00,,,0.00,,2013-05-23 01:32:00,
2013-05-22 20:42:00,68.0,61.0,29.76,North,0,0.0,0.0,78,0.00,,,0.00,,2013-05-23 01:42:00,
2013-05-22 20:52:00,68.0,61.0,29.76,North,0,0.0,0.0,78,0.00,,,0.00,,2013-05-23 01:52:00,
2013-05-22 21:01:00,68.0,61.0,29.76,North,0,0.0,0.0,79,0.00,,,0.00,,2013-05-23 02:01:00,
2013-05-22 21:11:00,67.0,60.0,29.77,North,0,0.0,0.0,79,0.00,,,0.00,,2013-05-23 02:11:00,
2013-05-22 21:21:00,67.0,60.0,29.77,North,0,0.0,0.0,79,0.00,,,0.00,,2013-05-23 02:21:00,
2013-05-22 21:31:00,67.0,61.0,29.77,North,0,0.0,0.0,82,0.00,,,0.00,,2013-05-23 02:31:00,
2013-05-22 21:42:00,67.0,61.0,29.77,North,0,0.0,0.0,82,0.00,,,0.00,,2013-05-23 02:42:00,
2013-05-22 21:52:00,67.0,61.0,29.77,North,0,0.0,0.0,82,0.00,,,0.00,,2013-05-23 02:52:00,
2013-05-22 22:01:00,66.0,60.0,29.78,North,0,0.0,0.0,81,0.00,,,0.00,,2013-05-23 03:01:00,
2013-05-22 22:11:00,66.0,60.0,29.78,North,0,0.0,0.0,81,0.00,,,0.00,,2013-05-23 03:11:00,
2013-05-22 22:21:00,66.0,60.0,29.78,North,0,0.0,0.0,82,0.00,,,0.00,,2013-05-23 03:21:00,
2013-05-22 22:33:00,65.0,60.0,29.79,North,0,0.0,0.0,83,0.00,,,0.00,,2013-05-23 03:33:00,
2013-05-22 22:43:00,65.0,60.0,29.79,North,0,0.0,0.0,83,0.00,,,0.00,,2013-05-23 03:43:00,
2013-05-22 22:53:00,65.0,60.0,29.79,West,261,0.0,2.0,83,0.00,,,0.00,,2013-05-23 03:53:00,
2013-05-22 23:03:00,65.0,60.0,29.79,North,0,0.0,0.0,85,0.00,,,0.00,,2013-05-23 04:03:00,
2013-05-22 23:12:00,65.0,60.0,29.79,North,0,0.0,0.0,85,0.00,,,0.00,,2013-05-23 04:12:00,
2013-05-22 23:22:00,64.0,60.0,29.79,North,0,0.0,0.0,86,0.00,,,0.00,,2013-05-23 04:22:00,
2013-05-22 23:33:00,65.0,60.0,29.79,WSW,257,0.0,3.0,85,0.00,,,0.00,,2013-05-23 04:33:00,
2013-05-22 23:42:00,65.0,60.0,29.79,WSW,257,0.0,3.0,85,0.00,,,0.00,,2013-05-23 04:42:00,
2013-05-22 23:52:00,65.0,60.0,29.79,WSW,242,0.0,3.0,83,0.00,,,0.00,,2013-05-23 04:52:00,